createdAt,value
2022-08-29T00:00:25.302Z,67.73
2022-08-29T00:02:56.601Z,67.63
2022-08-29T00:05:28.166Z,66.81
2022-08-29T00:07:58.359Z,66.71
2022-08-29T00:10:26.569Z,67.16
2022-08-29T00:12:57.753Z,67.28
2022-08-29T00:15:26.234Z,67.16
2022-08-29T00:17:54.203Z,67.67
2022-08-29T00:20:33.934Z,68.32
2022-08-29T00:23:02.617Z,67.74
2022-08-29T00:25:31.243Z,68.44
2022-08-29T00:28:00.827Z,68.77
2022-08-29T00:30:29.258Z,68.10
2022-08-29T00:32:57.124Z,68.17
2022-08-29T00:35:27.061Z,67.43
2022-08-29T00:37:55.706Z,67.62
2022-08-29T00:40:26.366Z,67.45
2022-08-29T00:42:54.874Z,67.30
2022-08-29T00:45:24.462Z,67.33
2022-08-29T00:47:54.074Z,68.39
2022-08-29T00:50:28.598Z,68.68
2022-08-29T00:52:57.340Z,68.95
2022-08-29T00:55:27.402Z,69.00
2022-08-29T00:57:58.045Z,69.00
2022-08-29T01:00:29.000Z,69.13
2022-08-29T01:02:57.331Z,69.82
2022-08-29T01:05:25.629Z,70.05
2022-08-29T01:07:53.676Z,70.28
2022-08-29T01:10:39.846Z,69.98
2022-08-29T01:13:09.166Z,70.39
2022-08-29T01:15:40.142Z,69.78
2022-08-29T01:18:09.018Z,69.56
2022-08-29T01:20:41.326Z,70.13
2022-08-29T01:23:15.564Z,70.15
2022-08-29T01:25:48.185Z,70.16
2022-08-29T01:28:19.934Z,70.05
2022-08-29T01:31:03.654Z,70.10
2022-08-29T01:33:40.918Z,70.71
2022-08-29T01:36:10.625Z,70.25
2022-08-29T01:38:38.547Z,70.42
2022-08-29T01:41:08.106Z,69.57
2022-08-29T01:43:41.213Z,69.51
2022-08-29T01:46:09.679Z,69.94
2022-08-29T01:48:39.901Z,70.39
2022-08-29T01:51:07.914Z,70.80
2022-08-29T01:53:36.553Z,71.03
2022-08-29T01:56:12.599Z,70.87
2022-08-29T01:58:40.442Z,71.54
2022-08-29T02:01:09.317Z,72.01
2022-08-29T02:03:37.366Z,72.31
2022-08-29T02:06:05.678Z,71.44
2022-08-29T02:08:33.632Z,71.66
2022-08-29T02:11:01.553Z,71.48
2022-08-29T02:13:30.761Z,71.30
2022-08-29T02:15:58.651Z,70.99
2022-08-29T02:18:26.477Z,71.06
2022-08-29T02:20:54.278Z,71.84
2022-08-29T02:23:30.532Z,71.90
2022-08-29T02:25:59.229Z,72.43
2022-08-29T02:28:27.091Z,72.97
2022-08-29T02:30:57.079Z,73.23
2022-08-29T02:33:25.936Z,73.92
2022-08-29T02:35:56.533Z,73.86
2022-08-29T02:38:25.555Z,74.15
2022-08-29T02:40:53.875Z,74.06
2022-08-29T02:43:23.577Z,74.00
2022-08-29T02:45:51.676Z,73.72
2022-08-29T02:48:21.355Z,73.12
2022-08-29T02:50:52.150Z,72.52
2022-08-29T02:53:22.001Z,71.91
2022-08-29T02:55:52.004Z,72.57
2022-08-29T02:58:20.458Z,73.03
2022-08-29T03:00:48.760Z,73.21
2022-08-29T03:03:16.559Z,73.21
2022-08-29T03:05:45.773Z,73.18
2022-08-29T03:08:14.916Z,72.84
2022-08-29T03:10:43.203Z,73.08
2022-08-29T03:13:11.080Z,73.56
2022-08-29T03:15:39.107Z,73.54
2022-08-29T03:18:07.440Z,73.04
2022-08-29T03:20:36.789Z,72.97
2022-08-29T03:23:06.928Z,73.56
2022-08-29T03:25:36.989Z,73.61
2022-08-29T03:28:05.118Z,73.70
2022-08-29T03:30:32.992Z,74.11
2022-08-29T03:33:02.390Z,73.37
2022-08-29T03:35:30.286Z,73.47
2022-08-29T03:37:58.095Z,73.55
2022-08-29T03:40:27.330Z,73.92
2022-08-29T03:42:55.913Z,74.63
2022-08-29T03:45:25.514Z,74.43
2022-08-29T03:47:53.867Z,74.11
2022-08-29T03:50:22.806Z,73.27
2022-08-29T03:52:50.917Z,73.11
2022-08-29T03:55:19.537Z,73.79
2022-08-29T03:57:49.220Z,74.09
2022-08-29T04:00:19.026Z,74.11
2022-08-29T04:02:48.203Z,73.55
2022-08-29T04:05:18.077Z,74.11
2022-08-29T04:07:48.705Z,74.68
2022-08-29T04:10:19.331Z,74.68
2022-08-29T04:12:52.558Z,75.42
2022-08-29T04:15:23.393Z,74.66
2022-08-29T04:17:52.952Z,74.41
2022-08-29T04:20:25.081Z,73.69
2022-08-29T04:22:54.055Z,74.32
2022-08-29T04:25:23.190Z,74.63
2022-08-29T04:27:52.394Z,74.84
2022-08-29T04:30:22.983Z,74.74
2022-08-29T04:32:51.027Z,74.19
2022-08-29T04:35:19.055Z,74.42
2022-08-29T04:37:46.886Z,74.32
2022-08-29T04:40:16.636Z,74.52
2022-08-29T04:42:44.836Z,74.98
2022-08-29T04:45:16.400Z,75.77
2022-08-29T04:47:44.580Z,76.82
2022-08-29T04:50:15.123Z,76.89
2022-08-29T04:52:43.854Z,76.75
2022-08-29T04:55:12.154Z,76.24
2022-08-29T04:57:42.067Z,76.01
2022-08-29T05:00:13.970Z,76.89
2022-08-29T05:02:44.586Z,75.93
2022-08-29T05:05:14.904Z,75.15
2022-08-29T05:07:43.328Z,75.42
2022-08-29T05:10:14.495Z,75.18
2022-08-29T05:12:43.322Z,75.23
2022-08-29T05:15:12.535Z,74.79
2022-08-29T05:17:40.514Z,73.31
2022-08-29T05:20:11.093Z,71.69
2022-08-29T05:22:39.523Z,70.75
2022-08-29T05:25:08.345Z,70.52
2022-08-29T05:27:36.289Z,70.75
2022-08-29T05:30:05.731Z,72.51
2022-08-29T05:32:33.660Z,73.11
2022-08-29T05:35:01.764Z,72.23
2022-08-29T05:37:31.052Z,73.48
2022-08-29T05:39:58.925Z,72.62
2022-08-29T05:42:27.595Z,71.48
2022-08-29T05:44:55.467Z,71.09
2022-08-29T05:47:24.124Z,71.79
2022-08-29T05:49:52.337Z,71.37
2022-08-29T05:52:21.861Z,71.13
2022-08-29T05:54:51.290Z,69.85
2022-08-29T05:57:22.395Z,67.69
2022-08-29T05:59:51.581Z,67.53
2022-08-29T06:02:20.232Z,67.09
2022-08-29T06:04:48.160Z,66.55
2022-08-29T06:07:16.361Z,67.40
2022-08-29T06:09:45.020Z,67.06
2022-08-29T06:12:16.241Z,65.78
2022-08-29T06:14:50.478Z,64.80
2022-08-29T06:17:18.996Z,64.19
2022-08-29T06:19:46.861Z,64.57
2022-08-29T06:22:16.543Z,64.87
2022-08-29T06:24:45.288Z,64.70
2022-08-29T06:27:16.610Z,65.24
2022-08-29T06:29:44.421Z,65.00
2022-08-29T06:32:12.998Z,64.03
2022-08-29T06:34:40.836Z,64.45
2022-08-29T06:37:08.676Z,63.59
2022-08-29T06:39:36.752Z,62.37
2022-08-29T06:42:05.130Z,61.91
2022-08-29T06:44:35.324Z,61.10
2022-08-29T06:47:03.340Z,60.36
2022-08-29T06:49:32.207Z,59.73
2022-08-29T06:52:00.078Z,59.25
2022-08-29T06:54:29.592Z,58.33
2022-08-29T06:56:58.230Z,58.14
2022-08-29T06:59:26.323Z,57.79
2022-08-29T07:01:56.163Z,56.57
2022-08-29T07:04:26.531Z,57.04
2022-08-29T07:06:54.736Z,57.42
2022-08-29T07:09:22.525Z,56.60
2022-08-29T07:11:50.594Z,55.89
2022-08-29T07:14:18.437Z,55.67
2022-08-29T07:16:46.326Z,55.80
2022-08-29T07:19:15.550Z,56.54
2022-08-29T07:21:43.394Z,57.02
2022-08-29T07:24:11.324Z,56.75
2022-08-29T07:26:42.510Z,57.43
2022-08-29T07:29:16.008Z,57.93
2022-08-29T07:31:44.973Z,56.31
2022-08-29T07:34:13.066Z,55.54
2022-08-29T07:36:42.241Z,55.83
2022-08-29T07:39:12.790Z,55.30
2022-08-29T07:41:41.551Z,54.84
2022-08-29T07:44:09.655Z,54.58
2022-08-29T07:46:37.704Z,54.17
2022-08-29T07:49:06.614Z,53.22
2022-08-29T07:51:34.885Z,53.26
2022-08-29T07:54:04.557Z,52.97
2022-08-29T07:56:37.919Z,53.22
2022-08-29T07:59:06.764Z,51.44
2022-08-29T08:01:35.630Z,50.89
2022-08-29T08:04:04.182Z,49.18
2022-08-29T08:06:34.385Z,49.61
2022-08-29T08:09:05.562Z,49.95
2022-08-29T08:11:33.414Z,48.45
2022-08-29T08:14:01.588Z,47.53
2022-08-29T08:16:30.628Z,47.86
2022-08-29T08:18:59.100Z,48.11
2022-08-29T08:21:27.427Z,47.47
2022-08-29T08:23:55.380Z,46.74
2022-08-29T08:26:24.682Z,46.38
2022-08-29T08:28:53.454Z,47.07
2022-08-29T08:31:23.741Z,46.35
2022-08-29T08:33:51.921Z,46.27
2022-08-29T08:36:23.114Z,46.34
2022-08-29T08:38:52.289Z,46.17
2022-08-29T08:41:29.887Z,45.06
2022-08-29T08:44:00.594Z,45.27
2022-08-29T08:46:33.858Z,45.60
2022-08-29T08:49:03.513Z,45.88
2022-08-29T08:51:33.476Z,43.99
2022-08-29T08:54:04.341Z,43.49
2022-08-29T08:56:36.344Z,43.39
2022-08-29T08:59:07.111Z,43.62
2022-08-29T09:01:38.884Z,42.36
2022-08-29T09:04:20.585Z,43.48
2022-08-29T09:06:55.264Z,42.43
2022-08-29T09:09:30.070Z,41.28
2022-08-29T09:12:07.283Z,41.30
2022-08-29T09:14:44.747Z,41.90
2022-08-29T09:17:16.445Z,42.00
2022-08-29T09:19:46.366Z,43.25
2022-08-29T09:22:18.392Z,42.27
2022-08-29T09:24:49.912Z,41.78
2022-08-29T09:27:20.693Z,42.53
2022-08-29T09:29:49.666Z,41.71
2022-08-29T09:32:22.281Z,40.60
2022-08-29T09:37:39.899Z,40.32
2022-08-29T09:40:11.306Z,41.57
2022-08-29T09:42:43.989Z,41.87
2022-08-29T09:45:24.941Z,41.43
2022-08-29T09:48:09.770Z,41.04
2022-08-29T09:50:37.689Z,41.61
2022-08-29T09:53:24.463Z,40.72
2022-08-29T09:55:53.913Z,39.40
2022-08-29T09:58:34.230Z,38.10
2022-08-29T10:01:09.721Z,38.15
2022-08-29T10:03:43.124Z,38.37
2022-08-29T10:06:15.098Z,37.46
2022-08-29T10:08:44.718Z,36.25
2022-08-29T10:11:21.314Z,36.99
2022-08-29T10:13:53.209Z,38.57
2022-08-29T10:16:33.222Z,37.69
2022-08-29T10:19:04.548Z,38.50
2022-08-29T10:21:36.430Z,38.15
2022-08-29T10:24:30.301Z,36.99
2022-08-29T10:27:04.809Z,37.47
2022-08-29T10:29:48.351Z,36.83
2022-08-29T10:32:26.906Z,37.73
2022-08-29T10:35:02.826Z,37.28
2022-08-29T10:37:38.871Z,36.26
2022-08-29T10:40:11.525Z,35.34
2022-08-29T10:42:45.968Z,35.06
2022-08-29T10:45:19.089Z,34.23
2022-08-29T10:47:53.112Z,34.84
2022-08-29T10:50:46.149Z,36.61
2022-08-29T10:53:18.512Z,34.99
2022-08-29T10:55:54.107Z,35.21
2022-08-29T10:58:29.824Z,34.50
2022-08-29T11:01:09.019Z,32.12
2022-08-29T11:03:40.442Z,31.02
2022-08-29T11:06:10.867Z,28.96
2022-08-29T11:08:41.670Z,29.62
2022-08-29T11:11:09.807Z,31.19
2022-08-29T11:13:42.101Z,32.49
2022-08-29T11:16:15.651Z,30.35
2022-08-29T11:18:47.161Z,28.93
2022-08-29T11:21:24.119Z,29.99
2022-08-29T11:23:52.171Z,30.42
2022-08-29T11:26:29.011Z,31.87
2022-08-29T11:28:59.484Z,31.43
2022-08-29T11:31:39.361Z,30.49
2022-08-29T11:34:18.693Z,30.29
2022-08-29T11:37:08.246Z,30.37
2022-08-29T11:39:50.735Z,32.08
2022-08-29T11:45:10.284Z,30.63
2022-08-29T11:47:42.039Z,30.08
2022-08-29T11:50:22.296Z,30.40
2022-08-29T11:52:52.866Z,29.00
2022-08-29T11:55:32.188Z,29.45
2022-08-29T11:58:05.815Z,26.17
2022-08-29T12:00:58.472Z,26.21
2022-08-29T12:03:55.050Z,27.32
2022-08-29T12:06:25.743Z,28.59
2022-08-29T12:09:01.736Z,29.32
2022-08-29T12:12:10.358Z,30.89
2022-08-29T12:14:40.234Z,30.95
2022-08-29T12:17:10.293Z,29.35
2022-08-29T12:19:53.978Z,29.01
2022-08-29T12:22:57.439Z,29.09
2022-08-29T12:25:39.290Z,28.06
2022-08-29T12:28:28.511Z,26.86
2022-08-29T12:31:08.104Z,25.59
2022-08-29T12:33:43.296Z,23.13
2022-08-29T12:36:26.732Z,23.75
2022-08-29T12:39:05.608Z,24.44
2022-08-29T12:41:46.693Z,25.82
2022-08-29T12:44:16.873Z,26.37
2022-08-29T12:46:46.482Z,27.96
2022-08-29T12:49:21.993Z,25.85
2022-08-29T12:51:56.405Z,21.68
2022-08-29T12:54:35.314Z,20.97
2022-08-29T12:57:04.136Z,19.80
2022-08-29T12:59:32.487Z,20.74
2022-08-29T13:02:00.448Z,22.35
2022-08-29T13:04:33.615Z,22.06
2022-08-29T13:07:04.453Z,20.54
2022-08-29T13:09:34.481Z,20.39
2022-08-29T13:12:11.666Z,21.21
2022-08-29T13:14:54.843Z,19.94
2022-08-29T13:17:25.257Z,21.13
2022-08-29T13:20:30.633Z,20.40
2022-08-29T13:23:09.572Z,20.30
2022-08-29T13:25:44.839Z,21.45
2022-08-29T13:28:16.106Z,23.87
2022-08-29T13:30:47.354Z,21.94
2022-08-29T13:33:35.689Z,21.27
2022-08-29T13:36:29.637Z,19.76
2022-08-29T13:39:17.903Z,20.66
2022-08-29T13:41:48.088Z,22.62
2022-08-29T13:44:18.396Z,21.11
2022-08-29T13:46:47.444Z,21.93
2022-08-29T13:49:20.433Z,22.05
2022-08-29T13:51:48.303Z,22.84
2022-08-29T13:54:17.642Z,22.51
2022-08-29T13:56:48.579Z,18.52
2022-08-29T13:59:17.157Z,18.96
2022-08-29T14:04:38.934Z,19.68
2022-08-29T14:07:08.759Z,17.40
2022-08-29T14:09:41.481Z,17.65
2022-08-29T14:12:10.216Z,19.43
2022-08-29T14:14:38.021Z,18.59
2022-08-29T14:17:06.191Z,19.77
2022-08-29T14:19:34.169Z,17.54
2022-08-29T14:22:02.528Z,16.72
2022-08-29T14:24:31.475Z,16.68
2022-08-29T14:27:02.681Z,18.59
2022-08-29T14:29:31.209Z,20.63
2022-08-29T14:31:59.065Z,18.60
2022-08-29T14:34:32.800Z,17.05
2022-08-29T14:37:01.194Z,16.93
2022-08-29T14:39:29.188Z,18.65
2022-08-29T14:41:57.169Z,17.18
2022-08-29T14:44:27.256Z,17.33
2022-08-29T14:46:55.246Z,15.33
2022-08-29T14:49:23.103Z,15.42
2022-08-29T14:51:51.086Z,16.05
2022-08-29T14:54:19.237Z,19.28
2022-08-29T14:56:49.219Z,22.28
2022-08-29T14:59:18.282Z,21.78
2022-08-29T15:01:53.429Z,19.85
2022-08-29T15:04:35.811Z,20.51
2022-08-29T15:07:07.497Z,20.51
2022-08-29T15:09:35.688Z,19.78
2022-08-29T15:12:03.931Z,20.25
2022-08-29T15:14:32.105Z,21.29
2022-08-29T15:17:01.351Z,22.75
2022-08-29T15:22:18.060Z,25.02
2022-08-29T15:24:46.394Z,25.60
2022-08-29T15:27:14.350Z,25.35
2022-08-29T15:29:42.202Z,25.70
2022-08-29T15:32:12.101Z,25.86
2022-08-29T15:34:41.217Z,25.48
2022-08-29T15:37:11.149Z,25.84
2022-08-29T15:39:39.282Z,24.99
2022-08-29T15:42:10.952Z,24.91
2022-08-29T15:44:39.578Z,26.59
2022-08-29T15:47:10.554Z,26.86
2022-08-29T15:49:40.530Z,27.83
2022-08-29T15:52:08.499Z,29.02
2022-08-29T15:54:36.669Z,28.52
2022-08-29T15:57:04.842Z,28.52
2022-08-29T15:59:56.440Z,29.41
2022-08-29T16:02:20.629Z,30.02
2022-08-29T16:04:53.660Z,30.70
2022-08-29T16:07:25.433Z,30.43
2022-08-29T16:09:57.766Z,29.48
2022-08-29T16:12:26.073Z,29.95
2022-08-29T16:15:02.447Z,29.46
2022-08-29T16:17:32.591Z,28.65
2022-08-29T16:20:02.335Z,29.44
2022-08-29T16:22:30.829Z,29.20
2022-08-29T16:24:58.990Z,28.04
2022-08-29T16:27:26.861Z,29.89
2022-08-29T16:29:56.116Z,28.46
2022-08-29T16:32:23.995Z,29.19
2022-08-29T16:34:51.988Z,28.72
2022-08-29T16:37:21.230Z,28.98
2022-08-29T16:39:49.045Z,28.75
2022-08-29T16:42:17.252Z,28.56
2022-08-29T16:44:45.113Z,29.38
2022-08-29T16:47:13.090Z,30.02
2022-08-29T16:49:41.262Z,29.09
2022-08-29T16:52:09.194Z,30.19
2022-08-29T16:54:38.437Z,29.96
2022-08-29T16:57:06.490Z,29.40
2022-08-29T16:59:35.670Z,30.81
2022-08-29T17:02:05.545Z,30.29
2022-08-29T17:04:33.611Z,31.09
2022-08-29T17:07:02.420Z,30.16
2022-08-29T17:09:29.152Z,30.30
2022-08-29T17:11:57.437Z,30.30
2022-08-29T17:14:29.085Z,31.50
2022-08-29T17:16:57.129Z,30.32
2022-08-29T17:19:25.414Z,30.39
2022-08-29T17:21:53.647Z,30.15
2022-08-29T17:24:21.915Z,29.97
2022-08-29T17:26:49.913Z,30.27
2022-08-29T17:29:19.224Z,31.10
2022-08-29T17:31:47.190Z,31.10
2022-08-29T17:34:16.193Z,30.79
2022-08-29T17:36:44.614Z,31.27
2022-08-29T17:39:13.125Z,31.83
2022-08-29T17:41:41.390Z,31.43
2022-08-29T17:44:11.353Z,32.68
2022-08-29T17:46:40.557Z,32.43
2022-08-29T17:49:10.401Z,32.63
2022-08-29T17:51:39.602Z,32.80
2022-08-29T17:54:12.244Z,33.08
2022-08-29T17:56:44.549Z,33.81
2022-08-29T17:59:12.945Z,34.47
2022-08-29T18:01:42.185Z,34.17
2022-08-29T18:04:10.834Z,34.44
2022-08-29T18:06:39.131Z,35.10
2022-08-29T18:09:07.675Z,34.80
2022-08-29T18:11:37.104Z,35.30
2022-08-29T18:14:04.978Z,36.36
2022-08-29T18:16:32.918Z,36.38
2022-08-29T18:19:02.359Z,36.32
2022-08-29T18:21:30.543Z,36.58
2022-08-29T18:23:58.394Z,37.01
2022-08-29T18:26:26.710Z,37.98
2022-08-29T18:28:54.850Z,38.60
2022-08-29T18:31:23.539Z,39.11
2022-08-29T18:34:00.983Z,39.18
2022-08-29T18:36:31.197Z,39.76
2022-08-29T18:38:59.105Z,40.25
2022-08-29T18:41:27.305Z,40.08
2022-08-29T18:43:55.241Z,41.04
2022-08-29T18:46:23.181Z,41.28
2022-08-29T18:48:51.204Z,41.44
2022-08-29T18:51:19.413Z,42.14
2022-08-29T18:53:49.061Z,42.30
2022-08-29T18:56:17.174Z,42.57
2022-08-29T18:58:45.094Z,43.01
2022-08-29T19:01:14.323Z,43.50
2022-08-29T19:03:42.466Z,43.78
2022-08-29T19:06:10.701Z,44.24
2022-08-29T19:08:39.506Z,44.28
2022-08-29T19:11:11.191Z,44.66
2022-08-29T19:13:39.525Z,44.55
2022-08-29T19:16:09.497Z,45.17
2022-08-29T19:18:37.748Z,45.36
2022-08-29T19:21:07.656Z,46.04
2022-08-29T19:23:37.523Z,46.28
2022-08-29T19:26:08.828Z,46.65
2022-08-29T19:28:37.028Z,46.44
2022-08-29T19:31:06.499Z,46.49
2022-08-29T19:33:35.327Z,47.07
2022-08-29T19:36:04.704Z,47.64
2022-08-29T19:38:32.775Z,47.76
2022-08-29T19:41:01.208Z,47.82
2022-08-29T19:43:33.189Z,47.14
2022-08-29T19:46:01.732Z,47.10
2022-08-29T19:48:30.133Z,48.11
2022-08-29T19:50:57.986Z,48.39
2022-08-29T19:53:26.839Z,48.03
2022-08-29T19:55:56.042Z,47.94
2022-08-29T19:58:31.420Z,48.16
2022-08-29T20:01:02.650Z,48.95
2022-08-29T20:03:31.396Z,50.13
2022-08-29T20:05:59.717Z,49.95
2022-08-29T20:08:29.203Z,49.88
2022-08-29T20:10:59.352Z,50.21
2022-08-29T20:13:32.858Z,48.96
2022-08-29T20:16:10.564Z,48.63
2022-08-29T20:18:40.521Z,48.56
2022-08-29T20:21:08.451Z,48.52
2022-08-29T20:23:38.861Z,49.04
2022-08-29T20:26:12.831Z,50.08
2022-08-29T20:28:41.719Z,49.44
2022-08-29T20:31:11.191Z,49.35
2022-08-29T20:33:41.394Z,49.93
2022-08-29T20:36:39.006Z,49.88
2022-08-29T20:39:08.107Z,50.52
2022-08-29T20:41:36.158Z,50.37
2022-08-29T20:44:07.467Z,49.79
2022-08-29T20:46:39.499Z,49.22
2022-08-29T20:49:07.531Z,50.35
2022-08-29T20:51:36.169Z,49.78
2022-08-29T20:54:04.077Z,49.35
2022-08-29T20:56:32.789Z,48.73
2022-08-29T20:59:00.618Z,49.19
2022-08-29T21:01:28.587Z,50.12
2022-08-29T21:04:15.544Z,49.79
2022-08-29T21:06:49.230Z,49.52
2022-08-29T21:09:17.051Z,49.23
2022-08-29T21:11:44.948Z,49.06
2022-08-29T21:14:12.862Z,48.75
2022-08-29T21:16:40.847Z,49.22
2022-08-29T21:19:10.194Z,49.13
2022-08-29T21:21:38.511Z,50.01
2022-08-29T21:24:07.120Z,49.87
2022-08-29T21:26:35.393Z,49.62
2022-08-29T21:29:03.354Z,49.53
2022-08-29T21:31:31.522Z,49.12
2022-08-29T21:34:02.245Z,49.28
2022-08-29T21:36:36.136Z,49.26
2022-08-29T21:39:05.454Z,50.13
2022-08-29T21:41:34.158Z,50.19
2022-08-29T21:44:02.034Z,50.31
2022-08-29T21:46:32.272Z,50.44
2022-08-29T21:49:01.756Z,50.28
2022-08-29T21:51:31.184Z,50.50
2022-08-29T21:54:00.766Z,51.01
2022-08-29T21:56:31.413Z,51.66
2022-08-29T21:58:59.474Z,52.20
2022-08-29T22:01:29.964Z,52.50
2022-08-29T22:03:59.249Z,52.75
2022-08-29T22:06:27.839Z,52.78
2022-08-29T22:08:57.809Z,53.25
2022-08-29T22:11:37.740Z,53.78
2022-08-29T22:14:06.422Z,54.05
2022-08-29T22:16:33.687Z,54.37
2022-08-29T22:19:04.320Z,54.49
2022-08-29T22:21:34.937Z,54.62
2022-08-29T22:24:03.479Z,54.67
2022-08-29T22:26:32.738Z,55.94
2022-08-29T22:29:04.454Z,55.33
2022-08-29T22:31:32.450Z,55.55
2022-08-29T22:34:00.337Z,55.46
2022-08-29T22:36:28.572Z,56.40
2022-08-29T22:38:56.877Z,56.66
2022-08-29T22:41:25.403Z,56.40
2022-08-29T22:44:31.624Z,56.86
2022-08-29T22:46:44.194Z,57.18
2022-08-29T22:49:12.070Z,57.17
2022-08-29T22:51:39.968Z,57.49
2022-08-29T22:54:36.888Z,57.08
2022-08-29T22:57:06.820Z,56.81
2022-08-29T22:59:37.178Z,57.34
2022-08-29T23:02:05.883Z,57.66
2022-08-29T23:04:34.060Z,58.06
2022-08-29T23:07:02.411Z,57.44
2022-08-29T23:09:35.068Z,57.35
2022-08-29T23:12:05.606Z,57.34
2022-08-29T23:14:35.633Z,57.55
2022-08-29T23:17:05.424Z,57.88
2022-08-29T23:19:33.559Z,58.09
2022-08-29T23:22:02.187Z,58.01
2022-08-29T23:24:30.451Z,57.52
2022-08-29T23:26:58.310Z,57.43
2022-08-29T23:29:27.019Z,57.49
2022-08-29T23:31:54.951Z,57.20
2022-08-29T23:34:24.137Z,57.31
2022-08-29T23:36:51.976Z,57.04
2022-08-29T23:39:19.863Z,57.55
2022-08-29T23:41:47.678Z,57.62
2022-08-29T23:44:15.549Z,57.59
2022-08-29T23:46:43.379Z,57.51
2022-08-29T23:49:11.253Z,58.09
2022-08-29T23:51:40.425Z,57.66
2022-08-29T23:54:08.434Z,57.43
2022-08-29T23:56:36.288Z,57.20
2022-08-29T23:59:04.217Z,56.84
